createdAt,value
2019-01-03T00:02:49.281Z,101980.80
2019-01-03T00:05:36.553Z,101978.72
2019-01-03T00:08:26.583Z,101982.06
2019-01-03T00:11:15.921Z,101981.94
2019-01-03T00:14:15.171Z,101988.20
2019-01-03T00:17:08.448Z,101985.11
2019-01-03T00:19:57.579Z,101988.77
2019-01-03T00:22:46.730Z,101984.94
2019-01-03T00:25:35.813Z,101988.48
2019-01-03T00:28:35.979Z,101984.86
2019-01-03T00:31:36.008Z,101992.98
2019-01-03T00:34:42.356Z,102005.02
2019-01-03T00:37:48.366Z,102010.41
2019-01-03T00:40:38.917Z,102012.67
2019-01-03T00:43:35.318Z,102022.53
2019-01-03T00:46:37.724Z,102025.81
2019-01-03T00:49:34.421Z,102015.86
2019-01-03T00:52:26.042Z,102025.77
2019-01-03T00:55:15.414Z,102037.91
2019-01-03T00:58:04.551Z,102026.06
2019-01-03T01:00:58.129Z,102030.56
2019-01-03T01:04:03.751Z,102028.23
2019-01-03T01:06:53.294Z,102037.28
2019-01-03T01:09:40.122Z,102042.84
2019-01-03T01:12:30.658Z,102044.77
2019-01-03T01:15:24.110Z,102049.67
2019-01-03T01:18:13.290Z,102044.51
2019-01-03T01:20:58.932Z,102043.61
2019-01-03T01:23:49.353Z,102046.70
2019-01-03T01:26:45.837Z,102044.76
2019-01-03T01:29:39.354Z,102053.53
2019-01-03T01:32:38.718Z,102042.16
2019-01-03T01:35:38.383Z,102050.19
2019-01-03T01:38:40.650Z,102054.55
2019-01-03T01:41:43.207Z,102048.09
2019-01-03T01:44:39.442Z,102050.20
2019-01-03T01:47:41.949Z,102045.53
2019-01-03T01:50:47.436Z,102047.99
2019-01-03T01:53:36.747Z,102045.05
2019-01-03T01:56:42.261Z,102039.09
2019-01-03T01:59:32.813Z,102038.72
2019-01-03T02:02:29.541Z,102033.42
2019-01-03T02:05:28.110Z,102035.50
2019-01-03T02:08:17.398Z,102028.02
2019-01-03T02:11:17.031Z,102023.34
2019-01-03T02:14:13.322Z,102031.48
2019-01-03T02:17:02.531Z,102031.09
2019-01-03T02:19:53.887Z,102027.74
2019-01-03T02:22:50.349Z,102022.97
2019-01-03T02:25:43.840Z,102025.42
2019-01-03T02:28:34.291Z,102023.33
2019-01-03T02:31:37.002Z,102017.13
2019-01-03T02:34:39.271Z,102014.31
2019-01-03T02:37:28.163Z,102017.16
2019-01-03T02:40:17.288Z,102012.78
2019-01-03T02:43:06.400Z,102015.45
2019-01-03T02:45:56.887Z,102015.88
2019-01-03T02:48:46.259Z,102008.12
2019-01-03T02:51:41.620Z,102012.00
2019-01-03T02:54:48.534Z,102012.77
2019-01-03T02:57:40.305Z,102015.63
2019-01-03T03:00:36.551Z,102008.90
2019-01-03T03:03:21.565Z,102010.19
2019-01-03T03:06:06.989Z,101996.13
2019-01-03T03:08:55.456Z,102000.64
2019-01-03T03:11:44.521Z,102002.69
2019-01-03T03:14:41.007Z,101995.63
2019-01-03T03:17:37.536Z,101996.77
2019-01-03T03:20:31.192Z,102001.42
2019-01-03T03:23:28.002Z,101994.42
2019-01-03T03:26:30.359Z,101986.00
2019-01-03T03:29:19.649Z,101994.19
2019-01-03T03:32:16.660Z,101979.74
2019-01-03T03:35:11.172Z,101980.19
2019-01-03T03:37:58.903Z,101977.34
2019-01-03T03:40:58.643Z,101982.27
2019-01-03T03:43:49.050Z,101981.64
2019-01-03T03:46:37.137Z,101980.42
2019-01-03T03:49:26.436Z,101974.78
2019-01-03T03:52:16.021Z,101981.41
2019-01-03T03:55:12.486Z,101980.69
2019-01-03T03:58:01.886Z,101977.67
2019-01-03T04:00:52.392Z,101982.00
2019-01-03T04:03:45.894Z,101981.63
2019-01-03T04:06:39.605Z,101986.22
2019-01-03T04:09:30.641Z,101990.80
2019-01-03T04:12:33.264Z,101991.44
2019-01-03T04:15:30.013Z,101994.75
2019-01-03T04:18:19.116Z,101982.87
2019-01-03T04:21:12.808Z,101996.40
2019-01-03T04:24:09.269Z,101989.11
2019-01-03T04:26:59.647Z,101991.04
2019-01-03T04:29:49.955Z,101989.84
2019-01-03T04:32:38.521Z,101994.86
2019-01-03T04:35:28.101Z,101988.14
2019-01-03T04:38:22.622Z,101987.42
2019-01-03T04:41:14.891Z,101995.52
2019-01-03T04:44:11.363Z,101995.59
2019-01-03T04:47:10.662Z,101988.34
2019-01-03T04:49:56.543Z,101986.27
2019-01-03T04:52:46.956Z,101983.53
2019-01-03T04:55:36.001Z,101983.02
2019-01-03T04:58:23.991Z,101985.69
2019-01-03T05:02:07.326Z,101991.70
2019-01-03T05:04:52.699Z,102004.38
2019-01-03T05:07:43.136Z,102004.50
2019-01-03T05:10:32.384Z,102001.64
2019-01-03T05:13:25.952Z,102002.44
2019-01-03T05:16:15.235Z,101995.47
2019-01-03T05:19:24.028Z,102001.14
2019-01-03T05:22:16.697Z,101998.16
2019-01-03T05:25:22.431Z,101994.73
2019-01-03T05:28:21.968Z,101992.41
2019-01-03T05:31:15.645Z,101986.42
2019-01-03T05:34:05.206Z,101978.86
2019-01-03T05:36:47.276Z,101984.91
2019-01-03T05:39:46.812Z,101991.49
2019-01-03T05:42:52.743Z,102005.67
2019-01-03T05:45:41.816Z,102002.22
2019-01-03T05:48:31.008Z,101988.53
2019-01-03T05:51:26.076Z,102009.41
2019-01-03T05:54:15.197Z,102000.64
2019-01-03T05:57:04.603Z,102007.89
2019-01-03T05:59:53.120Z,102011.22
2019-01-03T06:02:43.564Z,102014.53
2019-01-03T06:05:44.074Z,102019.61
2019-01-03T06:08:40.605Z,102010.70
2019-01-03T06:11:37.316Z,102006.80
2019-01-03T06:14:26.863Z,102024.31
2019-01-03T06:17:17.047Z,102018.95
2019-01-03T06:20:04.070Z,102026.94
2019-01-03T06:22:49.900Z,102032.91
2019-01-03T06:25:39.016Z,102026.05
2019-01-03T06:28:29.404Z,102035.11
2019-01-03T06:31:18.316Z,102026.84
2019-01-03T06:34:08.799Z,102032.77
2019-01-03T06:37:02.227Z,102030.53
2019-01-03T06:39:43.964Z,102029.30
2019-01-03T06:42:33.193Z,102048.73
2019-01-03T06:45:39.122Z,102049.41
2019-01-03T06:48:28.906Z,102048.27
2019-01-03T06:51:25.248Z,102052.23
2019-01-03T06:54:24.739Z,102052.24
2019-01-03T06:57:24.290Z,102048.62
2019-01-03T07:00:30.183Z,102046.80
2019-01-03T07:03:20.029Z,102058.20
2019-01-03T07:06:09.507Z,102065.88
2019-01-03T07:09:00.034Z,102066.11
2019-01-03T07:11:49.449Z,102062.55
2019-01-03T07:14:38.717Z,102059.58
2019-01-03T07:17:29.087Z,102071.16
2019-01-03T07:20:29.290Z,102081.88
2019-01-03T07:23:38.027Z,102092.14
2019-01-03T07:26:17.452Z,102091.15
2019-01-03T07:29:02.328Z,102096.38
2019-01-03T07:31:55.576Z,102094.05
2019-01-03T07:35:04.295Z,102093.05
2019-01-03T07:38:13.127Z,102096.88
2019-01-03T07:41:12.817Z,102101.28
2019-01-03T07:44:21.478Z,102096.72
2019-01-03T07:47:20.943Z,102103.73
2019-01-03T07:50:10.073Z,102102.33
2019-01-03T07:53:12.908Z,102097.16
2019-01-03T07:56:03.391Z,102100.75
2019-01-03T07:58:53.857Z,102102.59
2019-01-03T08:01:43.043Z,102100.73
2019-01-03T08:04:37.996Z,102097.53
2019-01-03T08:07:27.219Z,102097.77
2019-01-03T08:10:16.478Z,102109.83
2019-01-03T08:13:18.916Z,102111.86
2019-01-03T08:16:09.447Z,102112.11
2019-01-03T08:19:02.029Z,102115.98
2019-01-03T08:21:52.495Z,102111.57
2019-01-03T08:24:45.741Z,102114.74
2019-01-03T08:27:44.099Z,102120.57
2019-01-03T08:30:52.672Z,102124.52
2019-01-03T08:33:41.908Z,102131.97
2019-01-03T08:36:31.061Z,102131.77
2019-01-03T08:39:27.569Z,102134.42
2019-01-03T08:42:16.659Z,102131.86
2019-01-03T08:45:16.481Z,102136.01
2019-01-03T08:48:05.857Z,102132.13
2019-01-03T08:50:55.610Z,102141.28
2019-01-03T08:54:01.436Z,102137.53
2019-01-03T08:56:58.008Z,102137.70
2019-01-03T08:59:48.411Z,102142.86
2019-01-03T09:02:57.326Z,102142.87
2019-01-03T09:05:46.858Z,102151.24
2019-01-03T09:08:43.190Z,102152.30
2019-01-03T09:11:42.511Z,102152.02
2019-01-03T09:14:39.040Z,102151.25
2019-01-03T09:17:28.549Z,102148.27
2019-01-03T09:20:37.200Z,102150.09
2019-01-03T09:23:26.681Z,102158.71
2019-01-03T09:26:20.122Z,102152.28
2019-01-03T09:29:09.134Z,102157.07
2019-01-03T09:31:59.430Z,102163.52
2019-01-03T09:34:53.826Z,102169.19
2019-01-03T09:37:44.311Z,102168.42
2019-01-03T09:40:33.340Z,102180.42
2019-01-03T09:43:32.856Z,102174.84
2019-01-03T09:46:04.487Z,102171.97
2019-01-03T09:48:36.087Z,102169.31
2019-01-03T09:51:09.033Z,102171.48
2019-01-03T09:53:40.623Z,102162.81
2019-01-03T09:56:12.189Z,102160.27
2019-01-03T09:58:43.841Z,102173.73
2019-01-03T10:01:15.415Z,102168.11
2019-01-03T10:03:46.986Z,102162.05
2019-01-03T10:06:18.562Z,102169.31
2019-01-03T10:08:50.152Z,102168.65
2019-01-03T10:11:21.727Z,102169.66
2019-01-03T10:13:53.356Z,102173.44
2019-01-03T10:16:24.969Z,102180.13
2019-01-03T10:18:56.562Z,102181.17
2019-01-03T10:21:28.180Z,102184.58
2019-01-03T10:23:59.808Z,102174.98
2019-01-03T10:26:31.469Z,102179.19
2019-01-03T10:29:03.093Z,102178.63
2019-01-03T10:31:42.635Z,102179.36
2019-01-03T10:34:16.929Z,102175.08
2019-01-03T10:36:49.740Z,102177.80
2019-01-03T10:39:23.074Z,102184.00
2019-01-03T10:41:54.829Z,102172.63
2019-01-03T10:44:26.421Z,102173.38
2019-01-03T10:46:58.054Z,102170.95
2019-01-03T10:49:29.713Z,102168.96
2019-01-03T10:52:01.853Z,102168.58
2019-01-03T10:54:33.489Z,102174.91
2019-01-03T10:57:05.253Z,102186.73
2019-01-03T10:59:37.153Z,102181.52
2019-01-03T11:02:08.836Z,102170.45
2019-01-03T11:04:40.413Z,102174.57
2019-01-03T11:07:12.085Z,102176.30
2019-01-03T11:09:43.743Z,102173.52
2019-01-03T11:12:15.448Z,102175.59
2019-01-03T11:14:48.130Z,102182.89
2019-01-03T11:17:19.729Z,102176.72
2019-01-03T11:19:51.382Z,102157.53
2019-01-03T11:22:23.058Z,102170.18
2019-01-03T11:24:54.636Z,102175.63
2019-01-03T11:27:26.341Z,102170.67
2019-01-03T11:29:57.933Z,102179.98
2019-01-03T11:32:29.543Z,102162.04
2019-01-03T11:35:01.126Z,102174.17
2019-01-03T11:37:32.884Z,102169.42
2019-01-03T11:40:04.761Z,102180.48
2019-01-03T11:42:41.219Z,102179.47
2019-01-03T11:45:12.897Z,102188.48
2019-01-03T11:47:44.596Z,102179.69
2019-01-03T11:50:16.256Z,102177.80
2019-01-03T11:52:48.938Z,102172.56
2019-01-03T11:55:20.601Z,102175.45
2019-01-03T11:57:52.178Z,102178.91
2019-01-03T12:00:23.782Z,102175.22
2019-01-03T12:02:55.337Z,102176.88
2019-01-03T12:05:26.984Z,102181.78
2019-01-03T12:07:58.613Z,102185.72
2019-01-03T12:10:30.233Z,102196.51
2019-01-03T12:13:01.819Z,102199.37
2019-01-03T12:15:33.496Z,102203.20
2019-01-03T12:18:05.122Z,102203.42
2019-01-03T12:20:36.901Z,102204.23
2019-01-03T12:23:08.544Z,102210.11
2019-01-03T12:25:40.087Z,102210.84
2019-01-03T12:28:11.752Z,102210.48
2019-01-03T12:30:43.296Z,102207.83
2019-01-03T12:33:14.954Z,102205.76
2019-01-03T12:35:46.552Z,102203.84
2019-01-03T12:38:18.169Z,102200.00
2019-01-03T12:40:49.820Z,102198.58
2019-01-03T12:43:21.490Z,102203.34
2019-01-03T12:45:53.116Z,102200.16
2019-01-03T12:48:24.828Z,102200.05
2019-01-03T12:50:56.454Z,102202.20
2019-01-03T12:53:28.139Z,102212.95
2019-01-03T12:55:59.741Z,102212.69
2019-01-03T12:58:31.338Z,102215.93
2019-01-03T13:01:02.923Z,102225.66
2019-01-03T13:03:34.550Z,102225.75
2019-01-03T13:06:06.158Z,102214.50
2019-01-03T13:08:37.947Z,102222.98
2019-01-03T13:11:09.597Z,102227.52
2019-01-03T13:13:41.215Z,102223.52
2019-01-03T13:16:12.804Z,102229.61
2019-01-03T13:18:44.395Z,102228.58
2019-01-03T13:21:16.111Z,102229.09
2019-01-03T13:23:47.810Z,102231.71
2019-01-03T13:26:19.527Z,102233.23
2019-01-03T13:28:51.185Z,102238.42
2019-01-03T13:31:22.929Z,102237.00
2019-01-03T13:33:54.787Z,102235.31
2019-01-03T13:36:26.450Z,102239.95
2019-01-03T13:38:58.055Z,102239.33
2019-01-03T13:41:29.677Z,102243.58
2019-01-03T13:44:02.840Z,102245.76
2019-01-03T13:46:34.625Z,102249.12
2019-01-03T13:49:06.353Z,102245.91
2019-01-03T13:51:38.267Z,102253.40
2019-01-03T13:54:09.920Z,102247.98
2019-01-03T13:56:42.484Z,102254.69
2019-01-03T13:59:14.204Z,102252.88
2019-01-03T14:01:45.859Z,102248.50
2019-01-03T14:04:17.576Z,102258.41
2019-01-03T14:06:50.270Z,102257.02
2019-01-03T14:09:21.871Z,102261.53
2019-01-03T14:11:53.529Z,102268.91
2019-01-03T14:14:25.254Z,102265.28
2019-01-03T14:16:57.116Z,102269.53
2019-01-03T14:19:28.718Z,102272.53
2019-01-03T14:22:00.461Z,102271.38
2019-01-03T14:24:32.160Z,102266.05
2019-01-03T14:27:03.784Z,102269.94
2019-01-03T14:29:35.436Z,102275.75
2019-01-03T14:32:07.140Z,102265.53
2019-01-03T14:34:38.842Z,102267.87
2019-01-03T14:37:12.253Z,102268.91
2019-01-03T14:39:44.038Z,102264.27
2019-01-03T14:42:15.776Z,102273.03
2019-01-03T14:44:47.636Z,102274.88
2019-01-03T14:47:19.216Z,102275.23
2019-01-03T14:49:51.069Z,102284.28
2019-01-03T14:52:22.697Z,102290.05
2019-01-03T14:54:54.407Z,102292.18
2019-01-03T14:57:26.073Z,102291.66
2019-01-03T14:59:57.899Z,102296.37
2019-01-03T15:02:29.556Z,102292.65
2019-01-03T15:05:01.254Z,102302.01
2019-01-03T15:07:32.934Z,102300.39
2019-01-03T15:10:04.907Z,102297.73
2019-01-03T15:12:36.528Z,102293.16
2019-01-03T15:15:08.555Z,102292.30
2019-01-03T15:17:40.306Z,102301.52
2019-01-03T15:20:13.042Z,102310.29
2019-01-03T15:22:44.698Z,102310.92
2019-01-03T15:25:16.384Z,102319.33
2019-01-03T15:27:48.147Z,102316.30
2019-01-03T15:30:19.731Z,102322.73
2019-01-03T15:32:53.556Z,102321.89
2019-01-03T15:35:25.234Z,102326.91
2019-01-03T15:37:57.074Z,102329.46
2019-01-03T15:40:29.797Z,102333.62
2019-01-03T15:43:01.421Z,102335.26
2019-01-03T15:45:33.209Z,102343.61
2019-01-03T15:48:04.867Z,102337.48
2019-01-03T15:50:36.862Z,102352.24
2019-01-03T15:53:08.645Z,102355.55
2019-01-03T15:55:40.482Z,102371.80
2019-01-03T15:58:12.224Z,102367.31
2019-01-03T16:00:43.946Z,102375.50
2019-01-03T16:03:16.150Z,102374.59
2019-01-03T16:05:48.278Z,102368.45
2019-01-03T16:08:21.151Z,102363.98
2019-01-03T16:10:53.195Z,102372.52
2019-01-03T16:13:25.253Z,102377.15
2019-01-03T16:15:57.084Z,102375.50
2019-01-03T16:18:29.505Z,102370.27
2019-01-03T16:21:01.653Z,102373.61
2019-01-03T16:23:33.402Z,102371.53
2019-01-03T16:26:05.075Z,102376.91
2019-01-03T16:28:37.125Z,102380.62
2019-01-03T16:31:08.845Z,102379.65
2019-01-03T16:33:40.468Z,102377.61
2019-01-03T16:36:12.088Z,102377.38
2019-01-03T16:38:43.923Z,102387.23
2019-01-03T16:41:15.536Z,102396.86
2019-01-03T16:43:47.149Z,102391.89
2019-01-03T16:46:18.944Z,102398.20
2019-01-03T16:48:50.593Z,102396.60
2019-01-03T16:51:22.171Z,102395.67
2019-01-03T16:53:54.002Z,102396.51
2019-01-03T16:56:25.654Z,102398.34
2019-01-03T16:58:57.284Z,102398.55
2019-01-03T17:01:28.884Z,102392.89
2019-01-03T17:04:00.495Z,102404.18
2019-01-03T17:06:32.472Z,102401.77
2019-01-03T17:09:04.866Z,102413.96
2019-01-03T17:11:36.554Z,102410.13
2019-01-03T17:14:09.028Z,102410.34
2019-01-03T17:16:41.125Z,102408.77
2019-01-03T17:19:13.073Z,102416.31
2019-01-03T17:21:45.088Z,102417.48
2019-01-03T17:24:16.976Z,102406.77
2019-01-03T17:26:48.632Z,102413.52
2019-01-03T17:29:24.329Z,102413.08
2019-01-03T17:31:55.995Z,102397.70
2019-01-03T17:34:28.024Z,102395.87
2019-01-03T17:36:59.947Z,102395.47
2019-01-03T17:39:31.805Z,102405.72
2019-01-03T17:42:03.494Z,102400.36
2019-01-03T17:44:35.278Z,102399.16
2019-01-03T17:47:07.251Z,102409.09
2019-01-03T17:49:39.662Z,102409.59
2019-01-03T17:52:11.954Z,102412.75
2019-01-03T17:54:43.595Z,102417.19
2019-01-03T17:57:15.727Z,102416.86
2019-01-03T17:59:47.329Z,102415.66
2019-01-03T18:02:18.927Z,102423.47
2019-01-03T18:04:50.990Z,102423.77
2019-01-03T18:07:23.063Z,102435.27
2019-01-03T18:09:55.271Z,102434.60
2019-01-03T18:12:26.978Z,102439.17
2019-01-03T18:14:59.901Z,102440.75
2019-01-03T18:17:31.554Z,102450.52
2019-01-03T18:20:03.293Z,102451.51
2019-01-03T18:22:35.962Z,102448.19
2019-01-03T18:25:49.266Z,102461.16
2019-01-03T18:28:22.533Z,102452.98
2019-01-03T18:30:54.258Z,102451.03
2019-01-03T18:33:25.929Z,102450.98
2019-01-03T18:35:57.707Z,102447.47
2019-01-03T18:38:29.407Z,102454.68
2019-01-03T18:41:01.092Z,102464.71
2019-01-03T18:43:32.767Z,102464.45
2019-01-03T18:46:04.791Z,102468.23
2019-01-03T18:48:36.571Z,102470.97
2019-01-03T18:51:08.384Z,102468.28
2019-01-03T18:53:40.045Z,102469.03
2019-01-03T18:56:11.690Z,102465.62
2019-01-03T18:58:43.509Z,102480.22
2019-01-03T19:01:16.094Z,102471.84
2019-01-03T19:03:47.865Z,102474.16
2019-01-03T19:06:19.726Z,102483.25
2019-01-03T19:08:51.495Z,102483.95
2019-01-03T19:11:23.403Z,102483.16
2019-01-03T19:13:58.261Z,102481.80
2019-01-03T19:16:33.517Z,102489.22
2019-01-03T19:19:05.222Z,102492.28
2019-01-03T19:21:37.756Z,102490.02
2019-01-03T19:24:09.711Z,102488.40
2019-01-03T19:26:41.819Z,102497.56
2019-01-03T19:29:13.504Z,102496.33
2019-01-03T19:31:45.542Z,102496.33
2019-01-03T19:34:20.263Z,102489.47
2019-01-03T19:36:52.016Z,102496.34
2019-01-03T19:39:25.383Z,102494.36
2019-01-03T19:41:57.083Z,102504.30
2019-01-03T19:44:28.692Z,102504.30
2019-01-03T19:47:00.431Z,102507.48
2019-01-03T19:49:32.035Z,102508.22
2019-01-03T19:52:03.669Z,102515.47
2019-01-03T19:54:35.362Z,102515.78
2019-01-03T19:57:06.976Z,102516.08
2019-01-03T19:59:39.230Z,102522.08
2019-01-03T20:02:10.926Z,102522.70
2019-01-03T20:04:42.545Z,102527.67
2019-01-03T20:07:14.148Z,102523.42
2019-01-03T20:09:45.896Z,102525.09
2019-01-03T20:12:17.558Z,102526.38
2019-01-03T20:14:49.400Z,102532.98
2019-01-03T20:17:21.081Z,102521.16
2019-01-03T20:19:52.898Z,102527.97
2019-01-03T20:22:24.587Z,102526.44
2019-01-03T20:24:57.367Z,102531.70
2019-01-03T20:27:29.166Z,102527.98
2019-01-03T20:30:00.990Z,102539.41
2019-01-03T20:32:32.775Z,102537.05
2019-01-03T20:35:04.608Z,102534.41
2019-01-03T20:37:36.557Z,102531.52
2019-01-03T20:40:09.133Z,102525.31
2019-01-03T20:42:40.959Z,102525.92
2019-01-03T20:45:13.499Z,102524.22
2019-01-03T20:47:45.373Z,102528.41
2019-01-03T20:50:17.198Z,102525.98
2019-01-03T20:52:48.914Z,102525.44
2019-01-03T20:55:20.499Z,102521.73
2019-01-03T20:57:52.386Z,102526.70
2019-01-03T21:00:24.160Z,102522.59
2019-01-03T21:02:55.962Z,102523.43
2019-01-03T21:05:27.721Z,102522.03
2019-01-03T21:07:59.558Z,102521.83
2019-01-03T21:10:31.283Z,102520.56
2019-01-03T21:13:03.075Z,102520.00
2019-01-03T21:15:35.246Z,102520.72
2019-01-03T21:18:06.973Z,102514.47
2019-01-03T21:20:38.684Z,102519.59
2019-01-03T21:23:10.299Z,102523.27
2019-01-03T21:25:42.055Z,102518.33
2019-01-03T21:28:13.896Z,102518.17
2019-01-03T21:30:45.569Z,102523.90
2019-01-03T21:33:17.353Z,102514.15
2019-01-03T21:35:49.066Z,102513.58
2019-01-03T21:38:20.865Z,102514.25
2019-01-03T21:40:55.507Z,102516.88
2019-01-03T21:43:27.139Z,102512.83
2019-01-03T21:45:58.975Z,102517.97
2019-01-03T21:48:30.786Z,102520.42
2019-01-03T21:51:03.693Z,102527.69
2019-01-03T21:53:35.318Z,102529.23
2019-01-03T21:56:07.145Z,102524.77
2019-01-03T21:58:38.855Z,102532.50
2019-01-03T22:01:10.525Z,102532.54
2019-01-03T22:03:43.064Z,102536.07
2019-01-03T22:06:14.736Z,102528.62
2019-01-03T22:08:46.944Z,102526.41
2019-01-03T22:11:18.611Z,102525.77
2019-01-03T22:13:50.563Z,102529.11
2019-01-03T22:16:22.252Z,102529.63
2019-01-03T22:18:54.149Z,102525.21
2019-01-03T22:21:26.004Z,102534.72
2019-01-03T22:23:57.696Z,102528.80
2019-01-03T22:26:29.387Z,102532.13
2019-01-03T22:29:01.065Z,102523.41
2019-01-03T22:31:32.689Z,102518.48
2019-01-03T22:34:04.441Z,102516.48
2019-01-03T22:36:36.130Z,102510.45
2019-01-03T22:39:07.982Z,102521.90
2019-01-03T22:41:39.743Z,102518.80
2019-01-03T22:44:11.369Z,102514.63
2019-01-03T22:46:43.082Z,102512.98
2019-01-03T22:49:14.656Z,102516.02
2019-01-03T22:51:46.309Z,102516.39
2019-01-03T22:54:17.979Z,102518.25
2019-01-03T22:56:49.576Z,102509.98
2019-01-03T22:59:21.226Z,102507.48
2019-01-03T23:01:52.967Z,102509.75
2019-01-03T23:04:24.663Z,102502.01
2019-01-03T23:06:56.562Z,102499.12
2019-01-03T23:09:28.587Z,102498.12
2019-01-03T23:12:00.209Z,102505.04
2019-01-03T23:14:31.787Z,102512.45
2019-01-03T23:17:03.375Z,102508.36
2019-01-03T23:19:34.967Z,102516.65
2019-01-03T23:22:06.666Z,102513.68
2019-01-03T23:24:38.293Z,102518.67
2019-01-03T23:27:09.915Z,102523.11
2019-01-03T23:29:41.518Z,102521.80
2019-01-03T23:32:13.221Z,102524.42
2019-01-03T23:34:44.836Z,102527.08
2019-01-03T23:37:19.318Z,102519.89
2019-01-03T23:39:51.084Z,102523.23
2019-01-03T23:42:22.902Z,102530.50
2019-01-03T23:45:33.046Z,102527.21
2019-01-03T23:48:06.496Z,102530.84
2019-01-03T23:50:38.660Z,102530.23
2019-01-03T23:53:10.578Z,102535.13
2019-01-03T23:55:48.519Z,102539.69
2019-01-03T23:58:20.107Z,102533.72
